createdAt,value
2018-09-13T00:00:01.410Z,99956.42
2018-09-13T00:02:29.066Z,99952.11
2018-09-13T00:04:56.782Z,99959.56
2018-09-13T00:07:24.438Z,99960.41
2018-09-13T00:09:52.098Z,99961.32
2018-09-13T00:12:19.791Z,99946.02
2018-09-13T00:14:47.475Z,99952.41
2018-09-13T00:17:15.140Z,99945.42
2018-09-13T00:19:42.831Z,99952.38
2018-09-13T00:22:10.486Z,99945.66
2018-09-13T00:24:38.145Z,99952.39
2018-09-13T00:27:05.914Z,99946.86
2018-09-13T00:29:33.576Z,99944.64
2018-09-13T00:32:01.232Z,99946.77
2018-09-13T00:34:28.957Z,99946.38
2018-09-13T00:36:56.718Z,99948.21
2018-09-13T00:39:24.394Z,99948.81
2018-09-13T00:41:52.101Z,99944.56
2018-09-13T00:44:19.764Z,99949.87
2018-09-13T00:46:47.439Z,99940.96
2018-09-13T00:49:15.132Z,99946.09
2018-09-13T00:51:42.789Z,99941.56
2018-09-13T00:54:10.498Z,99943.52
2018-09-13T00:56:38.203Z,99940.16
2018-09-13T00:59:05.964Z,99937.76
2018-09-13T01:01:33.586Z,99940.33
2018-09-13T01:04:01.285Z,99934.34
2018-09-13T01:06:29.007Z,99930.24
2018-09-13T01:08:56.677Z,99922.86
2018-09-13T01:11:24.383Z,99924.70
2018-09-13T01:13:52.040Z,99919.92
2018-09-13T01:16:19.723Z,99918.89
2018-09-13T01:18:47.413Z,99920.09
2018-09-13T01:21:15.082Z,99928.30
2018-09-13T01:23:42.750Z,99920.39
2018-09-13T01:26:10.482Z,99920.45
2018-09-13T01:28:38.129Z,99911.20
2018-09-13T01:31:05.817Z,99910.05
2018-09-13T01:33:33.526Z,99909.39
2018-09-13T01:36:01.184Z,99906.28
2018-09-13T01:38:28.825Z,99899.01
2018-09-13T01:40:56.551Z,99901.80
2018-09-13T01:43:24.221Z,99893.72
2018-09-13T01:45:51.874Z,99896.39
2018-09-13T01:48:19.599Z,99900.23
2018-09-13T01:50:47.280Z,99902.45
2018-09-13T01:53:14.941Z,99910.61
2018-09-13T01:55:42.621Z,99900.41
2018-09-13T01:58:10.329Z,99902.76
2018-09-13T02:00:38.002Z,99905.09
2018-09-13T02:03:05.746Z,99903.56
2018-09-13T02:05:33.410Z,99909.16
2018-09-13T02:08:01.081Z,99903.56
2018-09-13T02:10:28.790Z,99906.89
2018-09-13T02:12:56.463Z,99901.13
2018-09-13T02:15:24.112Z,99905.99
2018-09-13T02:17:51.789Z,99898.97
2018-09-13T02:20:19.478Z,99899.07
2018-09-13T02:22:47.133Z,99892.53
2018-09-13T02:25:14.836Z,99892.53
2018-09-13T02:27:42.490Z,99900.38
2018-09-13T02:30:10.166Z,99897.79
2018-09-13T02:32:37.883Z,99898.14
2018-09-13T02:35:05.669Z,99900.27
2018-09-13T02:37:33.366Z,99897.11
2018-09-13T02:40:01.126Z,99896.03
2018-09-13T02:42:29.230Z,99894.08
2018-09-13T02:44:56.901Z,99888.35
2018-09-13T02:47:24.608Z,99891.41
2018-09-13T02:49:52.291Z,99886.72
2018-09-13T02:52:19.934Z,99890.84
2018-09-13T02:54:47.621Z,99894.52
2018-09-13T02:57:15.269Z,99899.13
2018-09-13T02:59:42.922Z,99902.94
2018-09-13T03:02:10.602Z,99897.77
2018-09-13T03:04:38.269Z,99901.02
2018-09-13T03:07:05.938Z,99905.27
2018-09-13T03:09:33.618Z,99893.69
2018-09-13T03:12:01.263Z,99897.02
2018-09-13T03:14:28.943Z,99903.84
2018-09-13T03:16:56.654Z,99904.39
2018-09-13T03:19:24.324Z,99909.21
2018-09-13T03:21:52.010Z,99894.84
2018-09-13T03:24:19.693Z,99894.32
2018-09-13T03:26:47.374Z,99891.83
2018-09-13T03:29:15.140Z,99898.08
2018-09-13T03:31:42.833Z,99896.08
2018-09-13T03:34:10.494Z,99900.77
2018-09-13T03:36:38.155Z,99896.59
2018-09-13T03:39:08.350Z,99903.34
2018-09-13T03:41:36.010Z,99908.48
2018-09-13T03:44:03.711Z,99906.33
2018-09-13T03:46:31.401Z,99903.84
2018-09-13T03:48:59.104Z,99903.14
2018-09-13T03:51:26.775Z,99901.86
2018-09-13T03:53:54.464Z,99905.02
2018-09-13T03:56:22.118Z,99908.34
2018-09-13T03:58:49.913Z,99903.02
2018-09-13T04:01:17.649Z,99908.47
2018-09-13T04:03:45.493Z,99901.80
2018-09-13T04:06:13.165Z,99908.28
2018-09-13T04:08:40.969Z,99907.52
2018-09-13T04:11:08.638Z,99904.36
2018-09-13T04:13:36.386Z,99904.52
2018-09-13T04:16:04.125Z,99899.19
2018-09-13T04:18:31.819Z,99896.83
2018-09-13T04:20:59.485Z,99899.45
2018-09-13T04:23:27.227Z,99893.00
2018-09-13T04:25:54.896Z,99886.25
2018-09-13T04:28:22.574Z,99895.78
2018-09-13T04:30:50.410Z,99888.09
2018-09-13T04:33:18.057Z,99885.20
2018-09-13T04:35:45.744Z,99888.42
2018-09-13T04:38:13.429Z,99880.79
2018-09-13T04:40:41.087Z,99883.68
2018-09-13T04:43:08.741Z,99888.10
2018-09-13T04:45:36.437Z,99878.78
2018-09-13T04:48:04.109Z,99881.94
2018-09-13T04:50:31.750Z,99875.84
2018-09-13T04:52:59.451Z,99872.89
2018-09-13T04:55:27.154Z,99878.72
2018-09-13T04:57:54.822Z,99881.63
2018-09-13T05:00:22.540Z,99874.47
2018-09-13T05:02:50.215Z,99878.78
2018-09-13T05:05:17.893Z,99876.50
2018-09-13T05:07:45.595Z,99864.72
2018-09-13T05:10:13.286Z,99857.77
2018-09-13T05:12:40.959Z,99853.28
2018-09-13T05:15:08.707Z,99856.69
2018-09-13T05:17:36.372Z,99848.42
2018-09-13T05:20:04.203Z,99854.98
2018-09-13T05:22:31.949Z,99862.19
2018-09-13T05:24:59.614Z,99856.66
2018-09-13T05:27:27.265Z,99855.97
2018-09-13T05:29:54.964Z,99860.09
2018-09-13T05:32:22.630Z,99858.41
2018-09-13T05:34:50.358Z,99849.13
2018-09-13T05:37:18.065Z,99855.91
2018-09-13T05:39:45.729Z,99861.95
2018-09-13T05:42:13.377Z,99863.27
2018-09-13T05:44:41.101Z,99871.05
2018-09-13T05:47:08.778Z,99876.77
2018-09-13T05:49:36.521Z,99874.36
2018-09-13T05:52:04.231Z,99869.22
2018-09-13T05:54:31.871Z,99867.73
2018-09-13T05:56:59.559Z,99853.58
2018-09-13T05:59:27.258Z,99857.11
2018-09-13T06:01:54.918Z,99848.23
2018-09-13T06:04:22.577Z,99849.95
2018-09-13T06:06:50.282Z,99849.27
2018-09-13T06:09:17.929Z,99855.34
2018-09-13T06:11:45.604Z,99858.50
2018-09-13T06:14:13.286Z,99863.50
2018-09-13T06:16:41.078Z,99866.22
2018-09-13T06:19:08.906Z,99856.63
2018-09-13T06:21:36.601Z,99866.44
2018-09-13T06:24:04.294Z,99860.70
2018-09-13T06:26:31.997Z,99846.98
2018-09-13T06:28:59.706Z,99854.06
2018-09-13T06:31:27.366Z,99864.70
2018-09-13T06:33:55.130Z,99863.47
2018-09-13T06:36:22.853Z,99868.89
2018-09-13T06:38:50.550Z,99880.96
2018-09-13T06:41:18.354Z,99872.19
2018-09-13T06:43:46.066Z,99869.39
2018-09-13T06:46:13.750Z,99875.15
2018-09-13T06:48:41.437Z,99870.88
2018-09-13T06:51:09.175Z,99865.59
2018-09-13T06:53:36.860Z,99871.89
2018-09-13T06:56:04.513Z,99872.39
2018-09-13T06:58:32.206Z,99883.89
2018-09-13T07:00:59.885Z,99882.03
2018-09-13T07:03:27.576Z,99878.10
2018-09-13T07:05:55.670Z,99882.84
2018-09-13T07:08:23.346Z,99878.98
2018-09-13T07:10:51.114Z,99870.17
2018-09-13T07:13:19.244Z,99884.92
2018-09-13T07:15:46.950Z,99891.23
2018-09-13T07:18:14.618Z,99893.28
2018-09-13T07:20:42.306Z,99896.50
2018-09-13T07:23:10.038Z,99887.96
2018-09-13T07:25:37.695Z,99893.48
2018-09-13T07:28:05.501Z,99894.79
2018-09-13T07:30:33.305Z,99896.16
2018-09-13T07:33:01.131Z,99898.47
2018-09-13T07:35:28.976Z,99896.61
2018-09-13T07:37:56.778Z,99898.55
2018-09-13T07:40:24.579Z,99894.97
2018-09-13T07:42:52.556Z,99882.89
2018-09-13T07:45:20.255Z,99877.63
2018-09-13T07:47:48.060Z,99882.91
2018-09-13T07:50:15.876Z,99885.40
2018-09-13T07:52:43.566Z,99888.61
2018-09-13T07:55:11.274Z,99888.17
2018-09-13T07:57:39.046Z,99889.00
2018-09-13T08:00:07.198Z,99882.28
2018-09-13T08:02:34.999Z,99879.47
2018-09-13T08:05:02.879Z,99893.81
2018-09-13T08:07:30.592Z,99879.36
2018-09-13T08:09:58.288Z,99880.78
2018-09-13T08:12:26.070Z,99877.98
2018-09-13T08:14:53.817Z,99876.95
2018-09-13T08:17:21.545Z,99871.11
2018-09-13T08:19:49.322Z,99870.30
2018-09-13T08:22:17.090Z,99862.78
2018-09-13T08:24:44.797Z,99864.54
2018-09-13T08:27:12.594Z,99865.86
2018-09-13T08:29:40.270Z,99862.05
2018-09-13T08:32:08.006Z,99858.06
2018-09-13T08:34:35.829Z,99855.29
2018-09-13T08:37:03.672Z,99849.82
2018-09-13T08:39:31.362Z,99853.97
2018-09-13T08:41:59.104Z,99851.45
2018-09-13T08:44:26.845Z,99859.44
2018-09-13T08:46:54.591Z,99853.80
2018-09-13T08:49:22.310Z,99851.67
2018-09-13T08:51:49.985Z,99849.58
2018-09-13T08:54:17.631Z,99844.98
2018-09-13T08:56:45.367Z,99851.23
2018-09-13T08:59:13.106Z,99835.25
2018-09-13T09:01:40.822Z,99830.89
2018-09-13T09:04:08.565Z,99831.00
2018-09-13T09:06:36.315Z,99823.68
2018-09-13T09:09:07.353Z,99822.81
2018-09-13T09:11:35.141Z,99824.28
2018-09-13T09:14:02.954Z,99816.83
2018-09-13T09:16:30.680Z,99825.69
2018-09-13T09:18:58.377Z,99812.58
2018-09-13T09:21:26.087Z,99803.47
2018-09-13T09:23:53.841Z,99799.17
2018-09-13T09:26:21.631Z,99794.72
2018-09-13T09:28:49.543Z,99799.06
2018-09-13T09:31:17.267Z,99791.08
2018-09-13T09:33:45.046Z,99800.30
2018-09-13T09:36:12.769Z,99791.81
2018-09-13T09:38:40.519Z,99793.72
2018-09-13T09:41:08.342Z,99784.22
2018-09-13T09:43:36.022Z,99782.50
2018-09-13T09:46:03.741Z,99797.77
2018-09-13T09:48:31.524Z,99790.52
2018-09-13T09:50:59.382Z,99779.37
2018-09-13T09:53:27.105Z,99771.11
2018-09-13T09:55:54.831Z,99764.70
2018-09-13T09:58:22.569Z,99764.93
2018-09-13T10:00:55.805Z,99761.69
2018-09-13T10:03:44.283Z,99763.64
2018-09-13T10:06:12.004Z,99755.08
2018-09-13T10:08:39.697Z,99764.53
2018-09-13T10:11:07.403Z,99751.80
2018-09-13T10:13:35.175Z,99749.34
2018-09-13T10:16:08.500Z,99754.04
2018-09-13T10:18:41.872Z,99747.22
2018-09-13T10:21:15.130Z,99746.05
2018-09-13T10:23:48.253Z,99739.55
2018-09-13T10:26:21.532Z,99730.94
2018-09-13T10:28:54.725Z,99717.98
2018-09-13T10:31:28.042Z,99711.33
2018-09-13T10:34:01.298Z,99698.29
2018-09-13T10:36:34.425Z,99695.16
2018-09-13T10:39:07.688Z,99693.15
2018-09-13T10:41:40.803Z,99688.70
2018-09-13T10:44:14.007Z,99685.78
2018-09-13T10:46:41.730Z,99678.30
2018-09-13T10:49:14.837Z,99680.16
2018-09-13T10:51:47.919Z,99678.80
2018-09-13T10:54:23.131Z,99666.92
2018-09-13T10:56:50.842Z,99660.87
2018-09-13T10:59:18.704Z,99653.84
2018-09-13T11:01:46.359Z,99639.85
2018-09-13T11:04:14.135Z,99636.63
2018-09-13T11:06:41.870Z,99639.64
2018-09-13T11:09:13.545Z,99639.55
2018-09-13T11:11:41.971Z,99633.35
2018-09-13T11:14:15.187Z,99623.38
2018-09-13T11:16:42.975Z,99628.05
2018-09-13T11:19:10.660Z,99620.70
2018-09-13T11:21:38.549Z,99615.97
2018-09-13T11:24:06.513Z,99617.31
2018-09-13T11:26:34.248Z,99615.94
2018-09-13T11:29:01.981Z,99620.69
2018-09-13T11:31:29.883Z,99612.41
2018-09-13T11:33:57.682Z,99608.26
2018-09-13T11:36:25.501Z,99618.00
2018-09-13T11:38:53.173Z,99620.27
2018-09-13T11:41:20.918Z,99618.45
2018-09-13T11:43:48.681Z,99610.25
2018-09-13T11:46:16.462Z,99609.16
2018-09-13T11:48:44.153Z,99599.88
2018-09-13T11:51:11.885Z,99597.53
2018-09-13T11:53:39.617Z,99604.22
2018-09-13T11:56:07.433Z,99600.03
2018-09-13T11:58:35.340Z,99604.61
2018-09-13T12:01:03.067Z,99596.98
2018-09-13T12:03:30.782Z,99592.84
2018-09-13T12:05:58.492Z,99600.30
2018-09-13T12:08:26.277Z,99600.50
2018-09-13T12:10:54.026Z,99598.11
2018-09-13T12:13:21.775Z,99597.56
2018-09-13T12:15:49.497Z,99593.09
2018-09-13T12:18:17.299Z,99594.03
2018-09-13T12:20:45.066Z,99583.83
2018-09-13T12:23:12.791Z,99584.80
2018-09-13T12:25:40.510Z,99588.52
2018-09-13T12:28:08.319Z,99584.90
2018-09-13T12:30:36.070Z,99588.79
2018-09-13T12:33:03.862Z,99582.23
2018-09-13T12:35:31.606Z,99573.81
2018-09-13T12:37:59.342Z,99575.52
2018-09-13T12:40:27.103Z,99579.89
2018-09-13T12:42:54.790Z,99576.22
2018-09-13T12:45:22.486Z,99579.22
2018-09-13T12:47:50.337Z,99572.17
2018-09-13T12:50:18.694Z,99575.13
2018-09-13T12:52:46.487Z,99571.41
2018-09-13T12:55:14.365Z,99571.18
2018-09-13T12:57:42.296Z,99570.09
2018-09-13T13:00:10.121Z,99574.50
2018-09-13T13:02:37.878Z,99577.22
2018-09-13T13:05:05.761Z,99578.07
2018-09-13T13:07:33.903Z,99579.23
2018-09-13T13:10:01.722Z,99576.83
2018-09-13T13:12:29.574Z,99578.96
2018-09-13T13:14:57.366Z,99589.32
2018-09-13T13:17:25.189Z,99577.79
2018-09-13T13:19:53.018Z,99574.93
2018-09-13T13:22:20.790Z,99569.62
2018-09-13T13:24:48.557Z,99569.27
2018-09-13T13:27:16.370Z,99568.47
2018-09-13T13:29:44.126Z,99565.27
2018-09-13T13:32:11.898Z,99560.05
2018-09-13T13:34:39.746Z,99555.74
2018-09-13T13:37:07.626Z,99555.01
2018-09-13T13:39:35.431Z,99555.78
2018-09-13T13:42:03.291Z,99542.88
2018-09-13T13:44:31.042Z,99544.50
2018-09-13T13:46:58.910Z,99535.53
2018-09-13T13:49:26.778Z,99527.94
2018-09-13T13:51:54.554Z,99522.74
2018-09-13T13:54:22.366Z,99523.02
2018-09-13T13:56:50.171Z,99518.84
2018-09-13T13:59:17.972Z,99532.35
2018-09-13T14:01:45.694Z,99530.59
2018-09-13T14:04:13.518Z,99524.69
2018-09-13T14:06:41.258Z,99522.31
2018-09-13T14:09:11.213Z,99516.91
2018-09-13T14:11:39.101Z,99511.19
2018-09-13T14:14:06.829Z,99508.52
2018-09-13T14:16:34.614Z,99507.00
2018-09-13T14:19:02.388Z,99503.92
2018-09-13T14:21:30.130Z,99499.59
2018-09-13T14:23:57.905Z,99498.30
2018-09-13T14:26:25.837Z,99501.84
2018-09-13T14:28:53.585Z,99500.08
2018-09-13T14:31:21.365Z,99500.40
2018-09-13T14:33:49.122Z,99493.34
2018-09-13T14:36:17.013Z,99497.56
2018-09-13T14:38:44.789Z,99500.14
2018-09-13T14:41:12.625Z,99502.41
2018-09-13T14:43:40.444Z,99501.08
2018-09-13T14:46:08.263Z,99497.73
2018-09-13T14:48:36.087Z,99498.73
2018-09-13T14:51:03.882Z,99491.22
2018-09-13T14:53:31.714Z,99491.56
2018-09-13T14:55:59.797Z,99498.98
2018-09-13T14:58:27.629Z,99500.83
2018-09-13T15:00:55.469Z,99507.78
2018-09-13T15:03:23.318Z,99500.53
2018-09-13T15:05:51.077Z,99504.80
2018-09-13T15:08:18.853Z,99499.81
2018-09-13T15:10:46.742Z,99501.98
2018-09-13T15:13:14.634Z,99501.27
2018-09-13T15:15:42.481Z,99501.27
2018-09-13T15:18:10.275Z,99503.71
2018-09-13T15:20:38.065Z,99501.63
2018-09-13T15:23:05.840Z,99495.49
2018-09-13T15:25:33.650Z,99498.23
2018-09-13T15:28:01.481Z,99503.08
2018-09-13T15:30:29.230Z,99499.70
2018-09-13T15:32:57.103Z,99494.16
2018-09-13T15:35:24.931Z,99495.73
2018-09-13T15:37:52.677Z,99494.47
2018-09-13T15:40:20.591Z,99494.48
2018-09-13T15:42:48.368Z,99496.03
2018-09-13T15:45:16.117Z,99493.15
2018-09-13T15:47:43.918Z,99492.03
2018-09-13T15:50:11.797Z,99492.34
2018-09-13T15:52:39.566Z,99492.77
2018-09-13T15:55:07.427Z,99497.92
2018-09-13T15:57:35.214Z,99503.11
2018-09-13T16:00:03.078Z,99503.73
2018-09-13T16:02:30.958Z,99497.32
2018-09-13T16:04:58.770Z,99492.50
2018-09-13T16:07:26.516Z,99489.82
2018-09-13T16:09:54.326Z,99495.40
2018-09-13T16:12:22.137Z,99501.28
2018-09-13T16:14:49.874Z,99498.36
2018-09-13T16:17:17.717Z,99495.08
2018-09-13T16:19:45.678Z,99494.16
2018-09-13T16:22:13.462Z,99493.55
2018-09-13T16:24:41.299Z,99499.89
2018-09-13T16:27:09.266Z,99505.37
2018-09-13T16:29:37.023Z,99509.11
2018-09-13T16:32:04.819Z,99508.37
2018-09-13T16:34:32.890Z,99510.05
2018-09-13T16:37:07.829Z,99504.48
2018-09-13T16:39:41.079Z,99503.45
2018-09-13T16:42:14.462Z,99500.50
2018-09-13T16:44:48.020Z,99503.30
2018-09-13T16:47:37.108Z,99497.64
2018-09-13T16:50:04.986Z,99509.02
2018-09-13T16:52:32.746Z,99508.23
2018-09-13T16:55:00.519Z,99509.68
2018-09-13T16:57:28.307Z,99508.30
2018-09-13T16:59:56.064Z,99513.27
2018-09-13T17:02:23.846Z,99516.03
2018-09-13T17:04:51.657Z,99523.17
2018-09-13T17:07:19.761Z,99530.53
2018-09-13T17:09:47.862Z,99526.41
2018-09-13T17:12:15.608Z,99526.48
2018-09-13T17:14:43.405Z,99533.08
2018-09-13T17:17:11.297Z,99537.19
2018-09-13T17:19:39.146Z,99532.53
2018-09-13T17:22:07.199Z,99538.57
2018-09-13T17:24:35.014Z,99532.52
2018-09-13T17:27:02.849Z,99538.03
2018-09-13T17:29:30.648Z,99536.64
2018-09-13T17:31:58.438Z,99533.89
2018-09-13T17:34:26.200Z,99531.97
2018-09-13T17:36:53.949Z,99538.25
2018-09-13T17:39:22.019Z,99531.64
2018-09-13T17:41:49.832Z,99531.91
2018-09-13T17:44:17.590Z,99530.27
2018-09-13T17:46:45.362Z,99523.96
2018-09-13T17:49:13.126Z,99531.66
2018-09-13T17:51:40.879Z,99525.06
2018-09-13T17:54:08.674Z,99516.52
2018-09-13T17:56:36.391Z,99517.88
2018-09-13T17:59:04.079Z,99518.69
2018-09-13T18:01:31.797Z,99522.21
2018-09-13T18:03:59.506Z,99524.69
2018-09-13T18:06:27.191Z,99523.33
2018-09-13T18:08:54.921Z,99519.20
2018-09-13T18:11:22.625Z,99513.97
2018-09-13T18:13:50.755Z,99507.94
2018-09-13T18:16:18.630Z,99512.03
2018-09-13T18:18:46.292Z,99522.23
2018-09-13T18:21:13.972Z,99523.28
2018-09-13T18:23:41.811Z,99522.91
2018-09-13T18:26:09.513Z,99519.59
2018-09-13T18:28:37.223Z,99519.84
2018-09-13T18:31:04.997Z,99522.25
2018-09-13T18:33:32.785Z,99511.83
2018-09-13T18:36:00.573Z,99517.59
2018-09-13T18:38:28.360Z,99521.41
2018-09-13T18:40:56.987Z,99522.02
2018-09-13T18:43:24.711Z,99516.58
2018-09-13T18:45:52.528Z,99512.96
2018-09-13T18:48:20.233Z,99517.27
2018-09-13T18:50:47.920Z,99508.97
2018-09-13T18:53:15.633Z,99507.13
2018-09-13T18:55:43.438Z,99507.73
2018-09-13T18:58:11.143Z,99505.86
2018-09-13T19:00:38.942Z,99504.21
2018-09-13T19:03:06.639Z,99507.54
2018-09-13T19:05:34.401Z,99509.73
2018-09-13T19:08:02.134Z,99509.20
2018-09-13T19:10:29.875Z,99511.36
2018-09-13T19:12:57.571Z,99511.57
2018-09-13T19:15:25.282Z,99509.14
2018-09-13T19:17:53.049Z,99507.89
2018-09-13T19:20:20.826Z,99504.88
2018-09-13T19:22:48.678Z,99502.69
2018-09-13T19:25:16.590Z,99500.74
2018-09-13T19:27:44.442Z,99495.47
2018-09-13T19:30:12.494Z,99502.39
2018-09-13T19:32:40.434Z,99495.33
2018-09-13T19:35:08.298Z,99497.28
2018-09-13T19:37:36.271Z,99490.70
2018-09-13T19:40:04.373Z,99498.87
2018-09-13T19:42:32.398Z,99500.82
2018-09-13T19:45:00.200Z,99499.21
2018-09-13T19:47:27.952Z,99507.75
2018-09-13T19:49:55.806Z,99506.71
2018-09-13T19:52:23.581Z,99501.16
2018-09-13T19:54:51.461Z,99508.59
2018-09-13T19:57:19.320Z,99501.68
2018-09-13T19:59:47.195Z,99496.73
2018-09-13T20:02:14.947Z,99496.45
2018-09-13T20:04:43.151Z,99497.52
2018-09-13T20:07:10.886Z,99499.98
2018-09-13T20:09:38.580Z,99498.46
2018-09-13T20:12:06.310Z,99502.86
2018-09-13T20:14:34.014Z,99502.00
2018-09-13T20:17:01.699Z,99510.58
2018-09-13T20:19:29.397Z,99516.68
2018-09-13T20:21:57.113Z,99519.45
2018-09-13T20:24:24.803Z,99520.26
2018-09-13T20:26:52.500Z,99522.76
2018-09-13T20:29:20.296Z,99520.16
2018-09-13T20:31:47.975Z,99528.22
2018-09-13T20:34:15.643Z,99529.55
2018-09-13T20:36:43.671Z,99519.04
2018-09-13T20:39:11.845Z,99516.41
2018-09-13T20:41:39.531Z,99518.37
2018-09-13T20:44:07.824Z,99514.01
2018-09-13T20:46:35.503Z,99513.45
2018-09-13T20:49:03.205Z,99517.33
2018-09-13T20:51:30.913Z,99514.56
2018-09-13T20:53:58.600Z,99513.16
2018-09-13T20:56:26.283Z,99510.69
2018-09-13T20:58:53.990Z,99515.97
2018-09-13T21:01:21.661Z,99517.13
2018-09-13T21:03:49.353Z,99510.54
2018-09-13T21:06:17.238Z,99521.25
2018-09-13T21:08:45.029Z,99520.11
2018-09-13T21:11:12.705Z,99519.55
2018-09-13T21:13:40.435Z,99521.99
2018-09-13T21:16:08.173Z,99523.64
2018-09-13T21:18:35.852Z,99530.46
2018-09-13T21:21:03.596Z,99532.06
2018-09-13T21:23:31.303Z,99535.28
2018-09-13T21:25:59.007Z,99536.65
2018-09-13T21:28:26.734Z,99539.45
2018-09-13T21:30:54.439Z,99534.51
2018-09-13T21:33:22.131Z,99529.22
2018-09-13T21:35:49.839Z,99531.03
2018-09-13T21:38:17.535Z,99534.85
2018-09-13T21:40:45.278Z,99534.38
2018-09-13T21:43:13.043Z,99530.03
2018-09-13T21:45:40.827Z,99533.61
2018-09-13T21:48:08.546Z,99527.03
2018-09-13T21:50:36.264Z,99531.77
2018-09-13T21:53:03.994Z,99530.80
2018-09-13T21:55:31.692Z,99527.77
2018-09-13T21:57:59.461Z,99531.61
2018-09-13T22:00:27.226Z,99526.75
2018-09-13T22:02:54.959Z,99513.81
2018-09-13T22:05:22.654Z,99521.19
2018-09-13T22:07:50.306Z,99509.62
2018-09-13T22:10:18.003Z,99508.88
2018-09-13T22:12:45.736Z,99505.10
2018-09-13T22:15:13.429Z,99512.81
2018-09-13T22:17:41.131Z,99508.70
2018-09-13T22:20:08.862Z,99514.69
2018-09-13T22:22:36.551Z,99510.31
2018-09-13T22:25:04.311Z,99514.03
2018-09-13T22:27:32.015Z,99509.92
2018-09-13T22:29:59.678Z,99512.09
2018-09-13T22:32:27.364Z,99511.03
2018-09-13T22:34:55.071Z,99512.08
2018-09-13T22:37:22.748Z,99522.37
2018-09-13T22:39:50.414Z,99514.84
2018-09-13T22:42:18.117Z,99519.84
2018-09-13T22:44:45.789Z,99520.05
2018-09-13T22:47:13.467Z,99516.75
2018-09-13T22:49:41.648Z,99514.38
2018-09-13T22:52:09.579Z,99503.97
2018-09-13T22:54:37.434Z,99507.73
2018-09-13T22:57:06.415Z,99517.78
2018-09-13T22:59:34.098Z,99510.49
2018-09-13T23:02:01.807Z,99520.16
2018-09-13T23:04:29.513Z,99517.69
2018-09-13T23:06:57.329Z,99518.56
2018-09-13T23:09:25.005Z,99519.34
2018-09-13T23:11:52.708Z,99508.28
2018-09-13T23:14:20.388Z,99512.59
2018-09-13T23:16:49.581Z,99505.71
2018-09-13T23:19:15.894Z,99500.74
2018-09-13T23:21:43.592Z,99507.28
2018-09-13T23:24:11.263Z,99512.14
2018-09-13T23:26:38.990Z,99513.02
2018-09-13T23:29:06.687Z,99515.73
2018-09-13T23:31:34.374Z,99510.80
2018-09-13T23:34:02.049Z,99508.24
2018-09-13T23:36:29.758Z,99513.75
2018-09-13T23:38:57.491Z,99514.04
2018-09-13T23:41:25.149Z,99517.73
2018-09-13T23:43:52.799Z,99512.95
2018-09-13T23:46:20.554Z,99514.57
2018-09-13T23:48:48.239Z,99513.09
2018-09-13T23:51:15.903Z,99514.20
2018-09-13T23:53:43.590Z,99515.59
2018-09-13T23:56:11.307Z,99516.25
2018-09-13T23:58:39.042Z,99508.86
